Time;durP1;ratioP1;P1;durP2;ratioP2;P2;SDS_P1;SDS_P2;PMS_P1;PMS_P2;Temp;Humidity;BMP_temperature;BMP_pressure;BME280_temperature;BME280_humidity;BME280_pressure;Samples;Min_cycle;Max_cycle;Signal;HPM_P1;HPM_P2
2023/05/07 00:01:37;;;;;;;7.03;6.33;;;18.30;99.90;;;;;;4977394;28;20283;-80
2023/05/07 00:04:03;;;;;;;8.27;7.47;;;18.20;99.90;;;;;;4977444;28;20233;-82
2023/05/07 00:06:29;;;;;;;9.40;6.97;;;18.20;99.90;;;;;;4977398;28;20293;-82
2023/05/07 00:08:56;;;;;;;8.10;7.40;;;18.10;99.90;;;;;;4977632;28;20438;-80
2023/05/07 00:11:22;;;;;;;8.60;7.80;;;18.10;99.90;;;;;;4977299;28;20501;-82
2023/05/07 00:13:48;;;;;;;8.77;6.93;;;18.20;99.90;;;;;;4977355;28;20892;-82
2023/05/07 00:16:14;;;;;;;9.60;7.87;;;18.10;99.90;;;;;;4977179;28;20204;-79
2023/05/07 00:18:40;;;;;;;8.20;7.40;;;18.00;99.90;;;;;;4977410;28;20267;-82
2023/05/07 00:21:05;;;;;;;9.30;7.70;;;18.00;99.90;;;;;;4976970;28;20597;-80
2023/05/07 00:23:31;;;;;;;8.83;7.93;;;18.00;99.90;;;;;;4977583;28;20188;-83
2023/05/07 00:25:57;;;;;;;7.90;7.20;;;18.00;99.90;;;;;;4977154;28;20199;-82
2023/05/07 00:28:22;;;;;;;7.57;6.87;;;18.00;99.90;;;;;;4975724;28;20271;-80
2023/05/07 00:30:48;;;;;;;8.40;7.47;;;18.00;99.90;;;;;;4976895;28;20192;-80
2023/05/07 00:33:14;;;;;;;8.97;7.90;;;18.00;99.90;;;;;;4975744;28;20188;-83
2023/05/07 00:35:39;;;;;;;8.47;7.33;;;18.00;99.90;;;;;;4976851;28;20286;-82
2023/05/07 00:38:05;;;;;;;8.53;7.80;;;17.90;99.90;;;;;;4976852;28;20184;-82
2023/05/07 00:40:31;;;;;;;10.63;7.80;;;17.90;99.90;;;;;;4976002;28;20251;-80
2023/05/07 00:42:57;;;;;;;8.80;7.90;;;17.80;99.90;;;;;;4975465;28;20271;-80
2023/05/07 00:45:28;;;;;;;9.13;7.97;;;17.80;99.90;;;;;;4976697;28;20247;-82
2023/05/07 00:47:59;;;;;;;9.03;8.13;;;17.80;99.90;;;;;;4976674;28;20426;-80
2023/05/07 00:50:27;;;;;;;9.50;8.50;;;17.70;99.90;;;;;;4976587;28;20778;-80
2023/05/07 00:52:53;;;;;;;9.80;8.10;;;17.80;99.90;;;;;;4975414;28;20426;-79
2023/05/07 00:55:19;;;;;;;9.57;8.57;;;17.80;99.90;;;;;;4976441;28;20439;-79
2023/05/07 00:57:45;;;;;;;11.77;8.33;;;17.80;99.90;;;;;;4976341;28;20399;-83
2023/05/07 01:00:12;;;;;;;8.90;7.83;;;17.70;99.90;;;;;;4976376;28;20567;-82
2023/05/07 01:02:42;;;;;;;9.00;7.90;;;17.80;99.90;;;;;;4976279;28;20557;-80
2023/05/07 01:05:16;;;;;;;9.00;7.87;;;17.70;99.90;;;;;;4974872;28;21003;-79
2023/05/07 01:07:43;;;;;;;11.60;8.23;;;17.70;99.90;;;;;;4976357;28;20399;-82
2023/05/07 01:10:10;;;;;;;9.20;7.73;;;17.70;99.90;;;;;;4976218;28;20932;-82
2023/05/07 01:12:37;;;;;;;10.10;8.57;;;17.60;99.90;;;;;;4976186;28;20908;-83
2023/05/07 01:15:05;;;;;;;9.13;8.13;;;17.60;99.90;;;;;;4976050;28;20442;-82
2023/05/07 01:17:34;;;;;;;9.23;7.53;;;17.50;99.90;;;;;;4976097;28;20455;-80
2023/05/07 01:20:00;;;;;;;10.20;8.00;;;17.50;99.90;;;;;;4974824;28;20525;-80
2023/05/07 01:22:44;;;;;;;8.97;8.07;;;17.50;99.90;;;;;;4974710;28;20561;-80
2023/05/07 01:25:10;;;;;;;7.97;7.23;;;17.50;99.90;;;;;;4974784;28;20236;-80
2023/05/07 01:27:37;;;;;;;8.77;7.60;;;17.40;99.90;;;;;;4975830;28;20442;-83
2023/05/07 01:30:04;;;;;;;8.20;7.20;;;17.40;99.90;;;;;;4976191;28;20192;-83
2023/05/07 01:32:47;;;;;;;10.37;8.83;;;17.40;99.90;;;;;;4976170;28;20406;-84
2023/05/07 01:35:19;;;;;;;8.70;7.80;;;17.40;99.90;;;;;;4975086;28;20951;-83
2023/05/07 01:37:46;;;;;;;9.70;7.60;;;17.40;99.90;;;;;;4975702;28;20942;-83
2023/05/07 01:40:13;;;;;;;9.67;8.23;;;17.30;99.90;;;;;;4975631;28;20438;-80
2023/05/07 01:42:39;;;;;;;8.50;7.67;;;17.40;99.90;;;;;;4974267;28;20481;-83
2023/05/07 01:45:05;;;;;;;8.10;7.30;;;17.40;99.90;;;;;;4974281;28;20445;-82
2023/05/07 01:47:32;;;;;;;7.83;7.10;;;17.40;99.90;;;;;;4975401;28;20415;-83
2023/05/07 01:49:58;;;;;;;9.23;8.33;;;17.30;99.90;;;;;;4975393;28;20521;-79
2023/05/07 01:52:25;;;;;;;8.60;7.80;;;17.30;99.90;;;;;;4975423;28;20812;-83
2023/05/07 01:54:50;;;;;;;8.40;7.60;;;17.20;99.90;;;;;;4975288;28;20903;-83
2023/05/07 01:57:16;;;;;;;11.40;8.80;;;17.20;99.90;;;;;;4974111;28;20418;-82
2023/05/07 01:59:42;;;;;;;8.53;7.70;;;17.20;99.90;;;;;;4975772;28;20181;-82
2023/05/07 02:02:07;;;;;;;9.37;7.83;;;17.20;99.90;;;;;;4973875;28;20232;-81
2023/05/07 02:04:33;;;;;;;9.23;8.33;;;17.30;99.90;;;;;;4975286;28;20246;-80
2023/05/07 02:06:59;;;;;;;9.23;8.13;;;17.30;99.90;;;;;;4975094;28;20325;-81
2023/05/07 02:09:24;;;;;;;10.13;8.27;;;17.30;99.90;;;;;;4975556;28;20184;-81
2023/05/07 02:11:50;;;;;;;10.90;8.73;;;17.30;99.90;;;;;;4973799;28;20196;-83
2023/05/07 02:14:16;;;;;;;9.30;8.30;;;17.30;99.90;;;;;;4975169;28;20250;-82
2023/05/07 02:16:41;;;;;;;9.07;8.07;;;17.30;99.90;;;;;;4975061;28;20207;-80
2023/05/07 02:19:07;;;;;;;10.67;8.70;;;17.20;99.90;;;;;;4975053;28;20189;-83
2023/05/07 02:21:33;;;;;;;15.53;9.00;;;17.30;99.90;;;;;;4973737;28;20220;-80
2023/05/07 02:23:58;;;;;;;9.50;8.13;;;17.30;99.90;;;;;;4975346;28;20180;-80
2023/05/07 02:26:25;;;;;;;10.23;8.50;;;17.30;99.90;;;;;;4973705;28;20197;-83
2023/05/07 02:28:51;;;;;;;9.47;8.57;;;17.30;99.90;;;;;;4975099;28;20208;-80
2023/05/07 02:31:17;;;;;;;9.53;8.53;;;17.20;99.90;;;;;;4974927;28;20464;-82
2023/05/07 02:33:43;;;;;;;10.23;8.70;;;17.20;99.90;;;;;;4975564;28;20458;-82
2023/05/07 02:36:12;;;;;;;10.73;8.53;;;17.30;99.90;;;;;;4974552;28;20200;-83
2023/05/07 02:38:38;;;;;;;10.10;8.60;;;17.30;99.90;;;;;;4973738;28;20196;-83
2023/05/07 02:41:04;;;;;;;8.73;7.63;;;17.30;99.90;;;;;;4974649;28;20465;-82
2023/05/07 02:43:29;;;;;;;11.13;8.27;;;17.10;99.90;;;;;;4973598;28;20507;-80
2023/05/07 02:46:06;;;;;;;11.40;8.00;;;17.10;99.90;;;;;;4973486;28;20840;-80
2023/05/07 02:48:32;;;;;;;8.90;8.03;;;17.10;99.90;;;;;;4975049;28;20715;-80
2023/05/07 02:50:58;;;;;;;9.50;8.50;;;17.10;99.90;;;;;;4973454;28;20521;-83
2023/05/07 02:53:29;;;;;;;13.33;9.27;;;17.20;99.90;;;;;;4973597;28;20438;-80
2023/05/07 02:55:59;;;;;;;9.20;8.00;;;17.30;99.90;;;;;;4973412;28;20521;-80
2023/05/07 02:58:25;;;;;;;9.70;8.10;;;17.40;99.90;;;;;;4974959;28;20435;-83
2023/05/07 03:00:51;;;;;;;10.43;7.77;;;17.50;99.90;;;;;;4973299;28;20552;-80
2023/05/07 03:03:18;;;;;;;9.00;7.53;;;17.50;99.90;;;;;;4974629;28;20438;-83
2023/05/07 03:05:43;;;;;;;8.63;7.57;;;17.40;99.90;;;;;;4978266;28;20465;-80
2023/05/07 03:08:09;;;;;;;11.00;8.50;;;17.50;99.90;;;;;;4979124;28;20422;-79
2023/05/07 03:10:36;;;;;;;9.33;8.20;;;17.60;99.90;;;;;;4978605;28;20204;-80
2023/05/07 03:13:02;;;;;;;9.53;8.40;;;17.70;99.90;;;;;;4977053;28;20761;-83
2023/05/07 03:15:28;;;;;;;10.33;8.80;;;17.70;99.90;;;;;;4977040;28;20446;-83
2023/05/07 03:17:54;;;;;;;9.60;8.70;;;17.70;99.90;;;;;;4976980;28;20928;-83
2023/05/07 03:20:20;;;;;;;8.10;7.30;;;17.80;99.90;;;;;;4978180;28;20558;-83
2023/05/07 03:22:45;;;;;;;14.03;8.40;;;17.70;99.90;;;;;;4978139;28;20181;-82
2023/05/07 03:25:12;;;;;;;9.03;7.77;;;17.70;99.90;;;;;;4976841;28;20888;-83
2023/05/07 03:27:37;;;;;;;9.20;8.30;;;17.70;99.90;;;;;;4976780;28;20271;-82
2023/05/07 03:30:04;;;;;;;9.27;8.37;;;17.70;99.90;;;;;;4976730;28;20994;-83
2023/05/07 03:32:29;;;;;;;8.47;7.67;;;17.70;99.90;;;;;;4976618;28;20279;-80
2023/05/07 03:34:55;;;;;;;12.00;9.23;;;17.70;99.90;;;;;;4978194;28;20916;-80
2023/05/07 03:37:21;;;;;;;9.33;8.33;;;17.60;99.90;;;;;;4978028;28;20193;-81
2023/05/07 03:39:47;;;;;;;9.73;7.70;;;17.70;99.90;;;;;;4976773;28;20438;-82
2023/05/07 03:42:13;;;;;;;9.40;8.50;;;17.70;99.90;;;;;;4976589;28;20466;-80
2023/05/07 03:44:38;;;;;;;11.60;8.70;;;17.70;99.90;;;;;;4976736;28;20192;-83
2023/05/07 03:47:04;;;;;;;11.00;8.07;;;17.60;99.90;;;;;;4976501;28;20425;-82
2023/05/07 03:49:30;;;;;;;10.67;8.50;;;17.50;99.90;;;;;;4978229;28;20272;-83
2023/05/07 03:51:56;;;;;;;9.27;8.40;;;17.50;99.90;;;;;;4976285;28;20228;-83
2023/05/07 03:54:22;;;;;;;8.90;7.30;;;17.50;99.90;;;;;;4978032;28;20267;-80
2023/05/07 03:56:47;;;;;;;10.50;8.83;;;17.60;99.90;;;;;;4977802;28;20517;-83
2023/05/07 03:59:13;;;;;;;9.90;8.73;;;17.50;99.90;;;;;;4976907;28;20438;-80
2023/05/07 04:01:39;;;;;;;10.40;8.63;;;17.60;99.90;;;;;;4977740;28;20231;-83
2023/05/07 04:04:05;;;;;;;9.50;8.60;;;17.60;99.90;;;;;;4976012;28;20478;-83
2023/05/07 04:06:31;;;;;;;10.17;8.47;;;17.60;99.90;;;;;;4977395;28;20975;-80
2023/05/07 04:08:57;;;;;;;10.63;9.20;;;17.60;99.90;;;;;;4976155;28;20434;-79
2023/05/07 04:11:23;;;;;;;11.10;9.00;;;17.60;99.90;;;;;;4975969;28;20196;-82
2023/05/07 04:13:48;;;;;;;9.47;8.47;;;17.60;99.90;;;;;;4977509;28;20669;-83
2023/05/07 04:16:14;;;;;;;12.80;8.57;;;17.70;99.90;;;;;;4975978;28;20461;-80
2023/05/07 04:18:40;;;;;;;10.27;8.70;;;17.70;99.90;;;;;;4975916;28;20631;-80
2023/05/07 04:21:06;;;;;;;8.80;7.90;;;17.70;99.90;;;;;;4976981;28;20465;-84
2023/05/07 04:23:31;;;;;;;9.47;8.03;;;17.70;99.90;;;;;;4977389;28;20243;-83
2023/05/07 04:25:57;;;;;;;8.93;8.13;;;17.70;99.90;;;;;;4975705;28;20561;-80
2023/05/07 04:28:24;;;;;;;9.17;8.10;;;17.80;99.90;;;;;;4977159;28;20177;-80
2023/05/07 04:30:50;;;;;;;9.33;8.30;;;17.90;99.90;;;;;;4976941;28;20242;-83
2023/05/07 04:33:16;;;;;;;10.60;8.17;;;17.90;99.90;;;;;;4976843;28;20943;-80
2023/05/07 04:35:43;;;;;;;10.50;8.67;;;17.90;99.90;;;;;;4975773;28;20196;-80
2023/05/07 04:38:08;;;;;;;8.70;7.60;;;17.90;99.90;;;;;;4975617;28;20441;-80
2023/05/07 04:40:35;;;;;;;9.20;8.33;;;18.00;99.90;;;;;;4975481;28;20924;-80
2023/05/07 04:43:01;;;;;;;11.20;9.20;;;17.90;99.90;;;;;;4977106;28;20568;-84
2023/05/07 04:45:27;;;;;;;9.03;7.97;;;18.00;99.90;;;;;;4975396;28;20442;-83
2023/05/07 04:47:52;;;;;;;9.73;8.20;;;18.00;99.90;;;;;;4976517;28;20184;-84
2023/05/07 04:50:19;;;;;;;11.87;8.83;;;17.90;99.90;;;;;;4976667;28;20287;-80
2023/05/07 04:52:45;;;;;;;10.30;7.87;;;18.00;99.90;;;;;;4976969;28;20177;-83
2023/05/07 04:55:11;;;;;;;12.10;9.63;;;18.00;99.90;;;;;;4976981;28;20437;-82
2023/05/07 04:57:39;;;;;;;13.13;8.53;;;18.00;99.90;;;;;;4976417;28;20430;-83
2023/05/07 05:00:08;;;;;;;10.30;9.00;;;18.00;99.90;;;;;;4975199;28;20196;-83
2023/05/07 05:02:34;;;;;;;12.43;8.33;;;18.00;99.90;;;;;;4975020;28;20819;-83
2023/05/07 05:05:01;;;;;;;12.07;9.50;;;18.00;99.90;;;;;;4974945;28;20490;-80
2023/05/07 05:07:26;;;;;;;12.50;9.43;;;18.00;99.90;;;;;;4976317;28;20405;-82
2023/05/07 05:09:52;;;;;;;23.67;10.70;;;18.00;99.90;;;;;;4976574;28;20900;-83
2023/05/07 05:12:18;;;;;;;13.60;9.30;;;18.00;99.90;;;;;;4976146;28;20180;-83
2023/05/07 05:14:43;;;;;;;10.23;7.90;;;17.90;99.90;;;;;;4974675;28;20189;-80
2023/05/07 05:17:09;;;;;;;9.30;7.93;;;17.90;99.90;;;;;;4975973;28;20177;-80
2023/05/07 05:19:35;;;;;;;8.20;7.40;;;17.90;99.90;;;;;;4974961;28;20189;-81
2023/05/07 05:22:03;;;;;;;13.73;8.67;;;17.90;99.90;;;;;;4974603;28;20224;-80
2023/05/07 05:24:30;;;;;;;9.27;8.00;;;17.90;99.90;;;;;;4974875;28;20215;-82
2023/05/07 05:26:56;;;;;;;9.60;7.77;;;17.90;99.90;;;;;;4975598;28;20441;-79
2023/05/07 05:29:22;;;;;;;8.70;7.80;;;17.80;99.90;;;;;;4976303;28;20947;-82
2023/05/07 05:31:48;;;;;;;10.33;8.27;;;17.70;99.90;;;;;;4975832;28;20422;-82
2023/05/07 05:34:13;;;;;;;10.83;8.83;;;17.50;99.90;;;;;;4976158;28;20180;-80
2023/05/07 05:36:39;;;;;;;9.33;8.30;;;17.50;99.90;;;;;;4975680;28;20429;-82
2023/05/07 05:39:05;;;;;;;10.10;8.63;;;17.60;99.90;;;;;;4974489;28;20239;-82
2023/05/07 05:41:31;;;;;;;13.53;9.90;;;17.70;99.90;;;;;;4975627;28;20205;-83
2023/05/07 05:43:57;;;;;;;8.67;7.67;;;17.80;99.90;;;;;;4976021;28;20430;-82
2023/05/07 05:46:22;;;;;;;12.83;9.53;;;17.80;99.90;;;;;;4974347;28;20200;-80
2023/05/07 05:48:48;;;;;;;11.37;10.07;;;17.90;99.90;;;;;;4976010;28;20285;-82
2023/05/07 05:51:13;;;;;;;10.40;8.37;;;18.00;99.90;;;;;;4974146;28;20658;-83
2023/05/07 05:53:39;;;;;;;9.37;8.27;;;18.20;99.90;;;;;;4975919;28;20192;-79
2023/05/07 05:56:05;;;;;;;10.70;8.37;;;18.30;99.90;;;;;;4974054;28;20193;-84
2023/05/07 05:58:31;;;;;;;10.83;8.80;;;18.30;99.90;;;;;;4974096;28;20208;-82
2023/05/07 06:00:58;;;;;;;9.93;8.17;;;18.30;99.90;;;;;;4975120;28;20509;-80
2023/05/07 06:03:23;;;;;;;9.67;7.67;;;18.30;99.90;;;;;;4975007;28;20426;-80
2023/05/07 06:05:49;;;;;;;14.57;8.40;;;18.40;99.90;;;;;;4973931;28;20466;-83
2023/05/07 06:08:15;;;;;;;9.37;8.33;;;18.40;99.90;;;;;;4975337;28;20188;-82
2023/05/07 06:10:41;;;;;;;8.77;7.87;;;18.40;99.90;;;;;;4975187;28;20200;-80
2023/05/07 06:13:07;;;;;;;8.43;7.53;;;18.50;99.90;;;;;;4975236;28;20901;-83
2023/05/07 06:15:32;;;;;;;10.63;6.70;;;18.60;99.90;;;;;;4975099;28;20191;-79
2023/05/07 06:17:58;;;;;;;9.17;7.00;;;18.70;99.90;;;;;;4974973;28;20443;-80
2023/05/07 06:20:23;;;;;;;9.27;7.10;;;18.80;99.90;;;;;;4975133;28;20578;-83
2023/05/07 06:22:49;;;;;;;8.30;6.63;;;18.80;99.90;;;;;;4974947;28;20227;-80
2023/05/07 06:25:15;;;;;;;9.50;7.20;;;18.80;99.90;;;;;;4973474;28;20543;-83
2023/05/07 06:27:41;;;;;;;8.80;6.93;;;18.80;99.90;;;;;;4973629;28;20189;-83
2023/05/07 06:30:07;;;;;;;8.57;7.50;;;18.80;99.90;;;;;;4973208;28;20207;-80
2023/05/07 06:32:33;;;;;;;7.70;7.00;;;18.90;99.90;;;;;;4973212;28;20194;-80
2023/05/07 06:34:58;;;;;;;13.17;7.60;;;18.90;99.90;;;;;;4974862;28;20429;-80
2023/05/07 06:37:24;;;;;;;8.30;6.63;;;19.00;99.90;;;;;;4975996;28;20179;-82
2023/05/07 06:39:50;;;;;;;9.83;7.23;;;19.10;99.90;;;;;;4973435;28;20190;-83
2023/05/07 06:42:15;;;;;;;10.73;7.70;;;19.20;99.90;;;;;;4974799;28;20567;-80
2023/05/07 06:44:41;;;;;;;7.37;6.67;;;19.30;99.90;;;;;;4973776;28;20191;-82
2023/05/07 06:47:07;;;;;;;8.57;7.47;;;19.30;99.90;;;;;;4974653;28;20172;-79
2023/05/07 06:49:33;;;;;;;8.30;6.93;;;19.30;99.90;;;;;;4972583;28;20195;-84
2023/05/07 06:51:58;;;;;;;7.77;6.97;;;19.30;99.90;;;;;;4971300;28;20207;-79
2023/05/07 06:54:24;;;;;;;6.23;5.50;;;19.40;99.90;;;;;;4971319;28;20654;-84
2023/05/07 06:56:50;;;;;;;8.43;6.60;;;19.60;99.90;;;;;;4972810;28;20204;-80
2023/05/07 06:59:16;;;;;;;7.93;6.80;;;19.70;99.90;;;;;;4972967;28;20195;-84
2023/05/07 07:01:41;;;;;;;6.53;5.90;;;19.80;99.90;;;;;;4971230;28;20591;-80
2023/05/07 07:04:07;;;;;;;6.43;5.83;;;19.90;99.90;;;;;;4971527;28;20477;-80
2023/05/07 07:06:33;;;;;;;6.80;6.20;;;20.00;99.90;;;;;;4974611;28;20211;-79
2023/05/07 07:08:59;;;;;;;6.83;5.90;;;20.00;99.90;;;;;;4973224;28;20550;-83
2023/05/07 07:11:25;;;;;;;6.63;6.03;;;20.10;99.90;;;;;;4974574;28;20194;-82
2023/05/07 07:13:51;;;;;;;5.83;5.23;;;20.20;99.90;;;;;;4974852;28;20426;-80
2023/05/07 07:16:16;;;;;;;7.73;5.57;;;20.30;99.90;;;;;;4974453;28;20617;-82
2023/05/07 07:18:42;;;;;;;8.20;5.70;;;20.40;99.90;;;;;;4974790;28;20192;-83
2023/05/07 07:21:08;;;;;;;8.93;5.63;;;20.50;99.90;;;;;;4974377;28;20466;-83
2023/05/07 07:23:34;;;;;;;6.37;5.77;;;20.50;99.90;;;;;;4974427;28;20184;-83
2023/05/07 07:25:59;;;;;;;7.73;6.43;;;20.50;99.90;;;;;;4973029;28;20216;-82
2023/05/07 07:28:25;;;;;;;6.10;5.50;;;20.50;99.90;;;;;;4974505;28;20184;-79
2023/05/07 07:30:51;;;;;;;6.27;5.67;;;20.70;99.90;;;;;;4973048;28;20280;-81
2023/05/07 07:33:16;;;;;;;6.63;5.60;;;20.80;99.90;;;;;;4973184;28;20430;-80
2023/05/07 07:35:42;;;;;;;8.30;6.47;;;21.00;99.90;;;;;;4973197;28;20232;-82
2023/05/07 07:38:08;;;;;;;7.93;5.67;;;21.20;99.90;;;;;;4973800;28;20193;-83
2023/05/07 07:40:37;;;;;;;5.37;4.87;;;21.30;99.90;;;;;;4974287;28;20203;-80
2023/05/07 07:43:02;;;;;;;6.23;5.10;;;21.40;99.90;;;;;;4974277;28;20191;-80
2023/05/07 07:45:28;;;;;;;6.10;4.90;;;21.40;99.90;;;;;;4972995;28;20437;-80
2023/05/07 07:47:54;;;;;;;9.17;5.47;;;21.40;99.90;;;;;;4972914;28;20227;-80
2023/05/07 07:50:20;;;;;;;5.60;5.20;;;21.60;99.90;;;;;;4975485;28;20505;-83
2023/05/07 07:52:46;;;;;;;8.07;5.57;;;21.70;99.90;;;;;;4977620;28;20207;-83
2023/05/07 07:55:12;;;;;;;5.37;3.80;;;21.70;99.90;;;;;;4976284;28;20545;-81
2023/05/07 07:57:37;;;;;;;5.57;5.00;;;21.80;99.90;;;;;;4976334;28;20184;-83
2023/05/07 08:00:04;;;;;;;7.27;4.80;;;21.70;99.90;;;;;;4977523;28;20789;-80
2023/05/07 08:02:29;;;;;;;5.33;4.90;;;21.70;99.90;;;;;;4977390;28;20203;-79
2023/05/07 08:04:56;;;;;;;5.50;5.00;;;21.70;99.90;;;;;;4977293;28;20478;-83
2023/05/07 08:07:22;;;;;;;6.83;5.40;;;21.90;99.90;;;;;;4977421;28;20829;-80
2023/05/07 08:09:48;;;;;;;5.83;4.73;;;22.00;99.90;;;;;;4977823;28;20503;-84
2023/05/07 08:12:14;;;;;;;5.33;4.77;;;22.00;99.90;;;;;;4977374;28;20430;-80
2023/05/07 08:14:40;;;;;;;5.57;4.70;;;22.10;99.90;;;;;;4976218;28;20438;-84
2023/05/07 08:17:06;;;;;;;4.93;4.53;;;22.20;99.90;;;;;;4976897;28;20410;-80
2023/05/07 08:19:32;;;;;;;5.90;5.10;;;22.30;99.90;;;;;;4977281;28;20773;-83
2023/05/07 08:21:58;;;;;;;6.67;4.93;;;22.30;99.90;;;;;;4976951;28;20212;-81
2023/05/07 08:24:23;;;;;;;6.27;5.43;;;22.40;99.90;;;;;;4976085;28;20686;-80
2023/05/07 08:26:49;;;;;;;5.30;4.80;;;22.40;99.90;;;;;;4977840;28;20614;-84
2023/05/07 08:29:15;;;;;;;9.73;5.43;;;22.50;99.90;;;;;;4976088;28;20500;-83
2023/05/07 08:31:41;;;;;;;5.93;5.43;;;22.60;99.90;;;;;;4976969;28;20235;-80
2023/05/07 08:34:07;;;;;;;6.00;5.50;;;22.60;99.90;;;;;;4977206;28;20263;-80
2023/05/07 08:36:33;;;;;;;9.93;5.30;;;22.60;99.90;;;;;;4975598;28;20201;-84
2023/05/07 08:38:59;;;;;;;8.30;4.80;;;22.70;99.90;;;;;;4976927;28;20458;-83
2023/05/07 08:41:25;;;;;;;4.80;4.40;;;22.90;99.90;;;;;;4984620;28;20632;-84
2023/05/07 08:43:51;;;;;;;5.73;5.10;;;23.00;98.80;;;;;;4973060;28;20462;-83
2023/05/07 08:46:19;;;;;;;7.87;4.87;;;23.00;98.60;;;;;;4973154;28;20626;-80
2023/05/07 08:48:45;;;;;;;4.23;3.93;;;23.20;99.00;;;;;;4973091;28;20181;-83
2023/05/07 08:51:16;;;;;;;5.60;5.10;;;23.40;98.80;;;;;;4971326;28;20455;-83
2023/05/07 08:53:43;;;;;;;5.60;5.00;;;23.60;98.20;;;;;;4971382;28;20436;-80
2023/05/07 08:56:09;;;;;;;5.07;4.67;;;23.80;98.00;;;;;;4972977;28;20519;-80
2023/05/07 08:58:36;;;;;;;5.20;4.70;;;24.00;98.10;;;;;;4974296;28;20644;-83
2023/05/07 09:01:06;;;;;;;5.90;4.90;;;24.10;97.40;;;;;;4973379;28;20475;-79
2023/05/07 09:03:32;;;;;;;4.70;4.30;;;24.20;97.50;;;;;;4974159;28;20419;-84
2023/05/07 09:05:58;;;;;;;8.80;4.70;;;24.20;97.10;;;;;;4989279;28;20435;-83
2023/05/07 09:08:27;;;;;;;5.30;4.90;;;24.20;97.10;;;;;;4974448;28;20544;-83
2023/05/07 09:10:53;;;;;;;5.77;5.27;;;24.10;97.00;;;;;;4972967;28;20201;-83
2023/05/07 09:13:19;;;;;;;4.57;4.17;;;24.10;97.40;;;;;;4975457;28;20443;-82
2023/05/07 09:15:45;;;;;;;35.17;26.00;;;24.20;97.20;;;;;;4976117;28;20199;-83
2023/05/07 09:18:12;;;;;;;6.17;4.90;;;24.30;97.30;;;;;;4974855;28;20445;-80
2023/05/07 09:20:38;;;;;;;12.63;11.30;;;24.40;96.40;;;;;;4974611;28;20195;-80
2023/05/07 09:23:04;;;;;;;6.87;6.17;;;24.30;96.80;;;;;;4974776;28;20449;-81
2023/05/07 09:25:31;;;;;;;5.27;4.77;;;24.40;96.70;;;;;;4975882;28;20947;-81
2023/05/07 09:27:57;;;;;;;5.10;4.70;;;24.60;96.80;;;;;;4974650;28;20472;-83
2023/05/07 09:30:23;;;;;;;5.40;4.90;;;24.70;96.50;;;;;;4974566;28;20516;-83
2023/05/07 09:32:48;;;;;;;8.30;5.10;;;24.80;95.90;;;;;;4974483;28;20421;-83
2023/05/07 09:35:18;;;;;;;16.43;13.80;;;24.70;95.90;;;;;;4990726;28;20218;-81
2023/05/07 09:37:43;;;;;;;6.93;5.33;;;24.70;96.00;;;;;;4974476;28;20191;-80
2023/05/07 09:40:23;;;;;;;7.00;4.60;;;24.70;95.30;;;;;;4975747;28;20836;-83
2023/05/07 09:42:49;;;;;;;100.77;57.43;;;24.80;95.40;;;;;;4989847;28;20751;-81
2023/05/07 09:45:20;;;;;;;6.23;5.63;;;24.90;95.70;;;;;;4972985;28;20441;-83
2023/05/07 09:47:49;;;;;;;6.57;5.57;;;24.80;95.50;;;;;;4973999;28;20938;-80
2023/05/07 09:50:18;;;;;;;5.33;4.93;;;24.80;95.50;;;;;;4989185;28;20589;-83
2023/05/07 09:52:45;;;;;;;5.87;5.27;;;24.90;95.50;;;;;;4974012;28;20934;-83
2023/05/07 09:55:12;;;;;;;6.47;5.37;;;25.00;95.40;;;;;;4973187;28;20458;-80
2023/05/07 09:57:39;;;;;;;5.43;4.93;;;25.20;95.60;;;;;;4989470;28;20530;-80
2023/05/07 10:00:08;;;;;;;6.50;4.40;;;25.30;95.00;;;;;;4974131;28;20952;-84
2023/05/07 10:02:36;;;;;;;5.77;5.17;;;25.30;94.80;;;;;;4974239;28;20536;-80
2023/05/07 10:05:03;;;;;;;5.47;5.00;;;25.30;94.80;;;;;;4975199;28;20917;-81
2023/05/07 10:07:29;;;;;;;6.13;5.53;;;25.50;95.10;;;;;;4975257;28;20417;-81
2023/05/07 10:09:57;;;;;;;5.00;4.60;;;25.60;94.40;;;;;;4975857;28;20433;-83
2023/05/07 10:12:24;;;;;;;7.10;5.57;;;25.70;94.40;;;;;;4974590;28;20423;-80
2023/05/07 10:14:52;;;;;;;5.20;4.77;;;25.70;94.40;;;;;;4973806;28;20529;-83
2023/05/07 10:17:18;;;;;;;5.30;4.50;;;25.80;94.00;;;;;;4975119;28;20418;-84
2023/05/07 10:19:47;;;;;;;4.63;4.23;;;25.90;94.00;;;;;;4974142;28;20913;-81
2023/05/07 10:22:16;;;;;;;4.90;4.50;;;25.90;93.50;;;;;;4974967;28;20541;-83
2023/05/07 10:24:44;;;;;;;6.30;5.10;;;25.90;93.60;;;;;;4975514;28;20820;-83
2023/05/07 10:27:14;;;;;;;5.17;4.60;;;26.00;93.40;;;;;;4975049;28;20425;-83
2023/05/07 10:29:53;;;;;;;5.17;4.67;;;26.00;93.40;;;;;;4990321;28;20506;-81
2023/05/07 10:32:44;;;;;;;4.83;4.50;;;26.00;93.20;;;;;;4975073;28;20809;-81
2023/05/07 10:35:20;;;;;;;4.70;4.30;;;25.90;93.20;;;;;;4974932;28;20918;-81
2023/05/07 10:37:46;;;;;;;5.07;4.67;;;25.90;93.20;;;;;;4973511;28;20786;-81
2023/05/07 10:40:13;;;;;;;5.83;5.43;;;25.90;92.90;;;;;;4974928;28;21103;-84
2023/05/07 10:42:39;;;;;;;5.77;5.37;;;25.90;93.00;;;;;;4974846;28;20466;-84
2023/05/07 10:45:16;;;;;;;6.20;5.70;;;25.80;93.00;;;;;;4973610;28;20434;-80
2023/05/07 10:48:10;;;;;;;5.77;5.27;;;25.80;93.10;;;;;;4973593;28;20591;-83
2023/05/07 10:50:37;;;;;;;4.90;4.40;;;25.80;93.10;;;;;;4974703;28;20986;-80
2023/05/07 10:53:20;;;;;;;5.63;4.90;;;25.70;93.10;;;;;;4974824;28;20464;-83
2023/05/07 10:55:51;;;;;;;6.30;5.20;;;25.70;92.90;;;;;;4974666;28;20437;-81
2023/05/07 10:58:29;;;;;;;5.80;5.30;;;25.70;92.80;;;;;;4974774;28;20433;-83
2023/05/07 11:01:00;;;;;;;7.47;4.97;;;25.70;92.90;;;;;;4974531;28;20429;-81
2023/05/07 11:03:26;;;;;;;6.50;5.00;;;25.70;92.90;;;;;;4974691;28;20902;-83
2023/05/07 11:06:15;;;;;;;6.07;5.57;;;25.60;92.80;;;;;;4974613;28;20441;-81
2023/05/07 11:08:53;;;;;;;7.70;5.53;;;25.60;92.90;;;;;;4975485;28;20457;-82
2023/05/07 11:11:22;;;;;;;8.23;5.17;;;25.60;92.70;;;;;;4974628;28;20778;-83
2023/05/07 11:13:50;;;;;;;6.00;5.50;;;25.60;92.90;;;;;;4973193;28;20438;-83
2023/05/07 11:16:23;;;;;;;6.87;6.00;;;25.50;93.10;;;;;;4989453;28;20438;-81
2023/05/07 11:18:59;;;;;;;7.00;5.63;;;25.40;93.00;;;;;;4973161;28;21021;-84
2023/05/07 11:21:33;;;;;;;9.40;7.97;;;25.20;94.00;;;;;;4974465;28;20480;-80
2023/05/07 11:24:00;;;;;;;11.47;6.60;;;24.40;96.80;;;;;;4974771;28;20428;-83
2023/05/07 11:26:27;;;;;;;7.30;5.90;;;24.10;97.60;;;;;;4992391;28;20442;-83
2023/05/07 11:28:54;;;;;;;7.10;6.40;;;23.80;98.40;;;;;;4978432;28;20940;-80
2023/05/07 11:31:25;;;;;;;5.30;4.90;;;23.60;98.90;;;;;;4978438;28;20464;-83
2023/05/07 11:33:52;;;;;;;6.90;6.17;;;23.40;99.60;;;;;;4989622;28;20451;-80
2023/05/07 11:36:18;;;;;;;7.77;5.90;;;23.40;99.90;;;;;;4978367;28;20797;-83
2023/05/07 11:38:44;;;;;;;6.03;5.30;;;23.30;99.80;;;;;;4978197;28;20435;-80
2023/05/07 11:41:10;;;;;;;6.47;5.70;;;23.20;99.90;;;;;;4977874;28;20952;-80
2023/05/07 11:43:36;;;;;;;6.20;5.70;;;23.20;99.90;;;;;;4984444;28;20228;-80
2023/05/07 11:46:12;;;;;;;7.20;6.53;;;23.10;99.90;;;;;;4997184;28;20280;-83
2023/05/07 11:48:38;;;;;;;6.37;5.73;;;23.10;99.90;;;;;;5012463;28;20962;-83
2023/05/07 11:51:08;;;;;;;6.70;6.10;;;22.90;99.90;;;;;;4997158;28;20525;-80
2023/05/07 11:53:39;;;;;;;9.03;6.93;;;22.80;99.90;;;;;;4993605;28;20439;-79
2023/05/07 11:56:09;;;;;;;9.80;6.93;;;22.80;99.90;;;;;;4987738;28;20492;-80
2023/05/07 11:58:35;;;;;;;7.07;6.47;;;22.80;99.90;;;;;;4994752;28;20441;-83
2023/05/07 12:01:00;;;;;;;6.60;5.97;;;22.80;99.90;;;;;;4991169;28;20478;-80
2023/05/07 12:03:26;;;;;;;7.77;6.93;;;22.90;99.90;;;;;;4992051;28;20576;-83
2023/05/07 12:05:52;;;;;;;6.80;6.10;;;22.70;99.90;;;;;;4996263;28;20707;-83
2023/05/07 12:08:19;;;;;;;8.97;5.93;;;22.70;99.90;;;;;;4995136;28;20576;-83
2023/05/07 12:10:47;;;;;;;8.50;6.33;;;22.70;99.90;;;;;;4995427;28;20298;-82
2023/05/07 12:13:24;;;;;;;7.00;6.20;;;22.70;99.90;;;;;;5011856;28;20492;-80
2023/05/07 12:15:55;;;;;;;6.90;6.20;;;22.60;99.90;;;;;;4995296;28;20443;-83
2023/05/07 12:18:22;;;;;;;8.17;5.97;;;22.60;99.90;;;;;;4995588;28;20414;-79
2023/05/07 12:20:48;;;;;;;6.97;6.37;;;22.60;99.90;;;;;;5009465;28;20433;-82
2023/05/07 12:23:14;;;;;;;7.63;6.80;;;22.70;99.90;;;;;;4994585;28;20936;-83
2023/05/07 12:25:46;;;;;;;6.60;6.10;;;22.80;99.90;;;;;;4994616;28;20965;-83
2023/05/07 12:28:17;;;;;;;6.47;5.90;;;22.90;99.90;;;;;;5009317;28;20472;-80
2023/05/07 12:30:44;;;;;;;6.90;6.33;;;22.90;99.90;;;;;;4994315;28;20430;-80
2023/05/07 12:33:10;;;;;;;7.90;6.13;;;23.00;99.90;;;;;;4992961;28;20440;-81
2023/05/07 12:35:39;;;;;;;6.20;5.60;;;23.10;99.90;;;;;;4995948;28;20426;-81
2023/05/07 12:38:08;;;;;;;6.97;6.27;;;23.20;99.90;;;;;;4995436;28;20927;-80
2023/05/07 12:40:41;;;;;;;9.03;6.00;;;23.40;99.90;;;;;;4995270;28;20452;-82
2023/05/07 12:43:07;;;;;;;7.77;6.40;;;23.50;99.90;;;;;;4996423;28;20993;-81
2023/05/07 12:45:41;;;;;;;7.87;5.97;;;23.60;99.90;;;;;;4996120;28;20446;-82